Time;durP1;ratioP1;P1;durP2;ratioP2;P2;SDS_P1;SDS_P2;PMS_P1;PMS_P2;Temp;Humidity;BMP_temperature;BMP_pressure;BME280_temperature;BME280_humidity;BME280_pressure;Samples;Min_cycle;Max_cycle;Signal;HPM_P1;HPM_P2
2021/07/12 00:00:20;;;;;;;10.88;8.60;;;18.70;99.90;;;;;;5009217;28;20181;-88
2021/07/12 00:02:46;;;;;;;15.98;9.57;;;18.60;99.90;;;;;;5009025;28;20104;-90
2021/07/12 00:05:13;;;;;;;11.73;9.48;;;18.60;99.90;;;;;;5009094;28;20301;-89
2021/07/12 00:07:39;;;;;;;13.93;9.93;;;18.60;99.90;;;;;;5002921;28;20042;-92
2021/07/12 00:10:06;;;;;;;16.10;10.57;;;18.40;99.90;;;;;;5013440;28;20026;-90
2021/07/12 00:12:33;;;;;;;13.80;9.35;;;18.50;99.90;;;;;;5013171;28;20022;-90
2021/07/12 00:14:58;;;;;;;13.43;10.10;;;18.60;99.90;;;;;;5028153;28;20092;-90
2021/07/12 00:17:24;;;;;;;15.68;9.60;;;18.50;99.90;;;;;;5007304;28;20026;-89
2021/07/12 00:19:49;;;;;;;24.48;9.82;;;18.40;99.90;;;;;;4993445;28;20072;-90
2021/07/12 00:22:15;;;;;;;13.05;9.35;;;18.60;99.90;;;;;;4993352;28;20088;-91
2021/07/12 00:24:41;;;;;;;16.40;10.70;;;18.60;99.90;;;;;;4993460;28;20027;-88
2021/07/12 00:27:06;;;;;;;17.35;11.15;;;18.60;99.90;;;;;;4993365;28;20041;-90
2021/07/12 00:29:32;;;;;;;15.68;11.15;;;18.60;99.90;;;;;;5012187;28;20038;-92
2021/07/12 00:31:57;;;;;;;14.73;10.98;;;18.70;99.90;;;;;;5012653;28;20395;-90
2021/07/12 00:34:23;;;;;;;14.80;10.27;;;18.40;99.90;;;;;;5027783;28;20483;-91
2021/07/12 00:36:49;;;;;;;15.95;11.60;;;18.60;99.90;;;;;;5012943;28;20097;-91
2021/07/12 00:39:14;;;;;;;14.43;11.60;;;18.60;99.90;;;;;;5027107;28;20029;-92
2021/07/12 00:41:40;;;;;;;15.98;13.20;;;18.50;99.90;;;;;;5012548;28;20030;-89
2021/07/12 00:44:06;;;;;;;17.38;12.90;;;18.50;99.90;;;;;;5012590;28;20069;-91
2021/07/12 00:46:33;;;;;;;21.17;13.10;;;18.50;99.90;;;;;;5012983;28;20036;-90
2021/07/12 00:48:59;;;;;;;23.75;14.50;;;18.60;99.90;;;;;;5019175;28;20522;-91
2021/07/12 00:51:25;;;;;;;18.38;12.43;;;18.50;99.90;;;;;;4992906;28;20035;-90
2021/07/12 00:53:51;;;;;;;22.17;12.27;;;18.40;99.90;;;;;;4992096;28;20034;-89
2021/07/12 00:56:17;;;;;;;21.52;13.25;;;18.40;99.90;;;;;;4993377;28;20406;-91
2021/07/12 00:58:43;;;;;;;17.60;13.07;;;18.50;99.90;;;;;;5012845;28;20034;-90
2021/07/12 01:01:08;;;;;;;19.17;12.80;;;18.60;99.90;;;;;;5012422;28;20030;-91
2021/07/12 01:03:35;;;;;;;15.10;12.25;;;18.50;99.90;;;;;;5027755;28;20478;-91
2021/07/12 01:06:01;;;;;;;15.65;12.35;;;18.60;99.90;;;;;;5012362;28;20501;-90
2021/07/12 01:08:27;;;;;;;19.20;13.35;;;18.50;99.90;;;;;;5012222;28;20076;-88
2021/07/12 01:10:59;;;;;;;28.90;13.80;;;18.50;99.90;;;;;;5009499;28;20030;-91
2021/07/12 01:13:37;;;;;;;20.67;14.43;;;18.30;99.90;;;;;;5012469;28;20026;-91
2021/07/12 01:16:16;;;;;;;19.02;13.75;;;18.50;99.90;;;;;;5027429;28;20053;-89
2021/07/12 01:18:54;;;;;;;22.00;15.23;;;18.50;99.90;;;;;;5012544;28;20103;-91
2021/07/12 01:21:57;;;;;;;21.30;14.77;;;18.50;99.90;;;;;;5007789;28;20113;-91
2021/07/12 01:24:53;;;;;;;19.70;14.48;;;18.40;99.90;;;;;;4991345;28;20026;-89
2021/07/12 01:27:37;;;;;;;24.17;16.35;;;18.50;99.90;;;;;;4992527;28;20105;-91
2021/07/12 01:30:16;;;;;;;;;;;18.50;99.90;;;;;;4993301;28;20069;-89
2021/07/12 01:32:55;;;;;;;23.25;15.48;;;18.50;99.90;;;;;;4992338;28;19906;-90
2021/07/12 01:36:00;;;;;;;21.85;16.05;;;18.40;99.90;;;;;;5007873;28;20122;-90
2021/07/12 01:38:41;;;;;;;22.30;16.55;;;18.50;99.90;;;;;;4992891;28;20153;-91
2021/07/12 01:41:18;;;;;;;27.08;15.30;;;18.50;99.90;;;;;;5008054;28;20060;-91
2021/07/12 01:43:52;;;;;;;27.10;16.90;;;18.60;99.90;;;;;;5031623;28;20022;-90
2021/07/12 01:46:31;;;;;;;21.75;15.57;;;18.50;99.90;;;;;;4996149;28;20029;-91
2021/07/12 01:49:08;;;;;;;22.98;16.13;;;18.40;99.90;;;;;;5024285;28;20508;-88
2021/07/12 01:52:01;;;;;;;24.70;17.80;;;18.50;99.90;;;;;;5014062;28;20022;-91
2021/07/12 01:54:36;;;;;;;23.65;15.77;;;18.50;99.90;;;;;;5015509;28;20029;-90
2021/07/12 01:57:10;;;;;;;22.58;17.17;;;18.40;99.90;;;;;;5015560;28;20048;-90
2021/07/12 01:59:50;;;;;;;29.15;18.05;;;18.60;99.90;;;;;;4999187;28;20023;-89
2021/07/12 02:02:16;;;;;;;22.48;17.95;;;18.40;99.90;;;;;;4995327;28;20026;-88
2021/07/12 02:04:44;;;;;;;22.15;16.80;;;18.40;99.90;;;;;;5010623;28;20118;-90
2021/07/12 02:07:14;;;;;;;22.60;17.30;;;18.40;99.90;;;;;;4995744;28;20065;-89
2021/07/12 02:09:41;;;;;;;30.05;18.25;;;18.40;99.90;;;;;;5007671;28;20452;-89
2021/07/12 02:12:07;;;;;;;28.63;19.38;;;18.40;99.90;;;;;;5015453;28;20022;-91
2021/07/12 02:14:33;;;;;;;23.08;17.23;;;18.40;99.90;;;;;;5014828;28;20509;-91
2021/07/12 02:17:03;;;;;;;27.67;19.20;;;18.40;99.90;;;;;;5015130;28;20037;-90
2021/07/12 02:19:31;;;;;;;31.67;18.73;;;18.30;99.90;;;;;;5004116;28;20034;-90
2021/07/12 02:21:59;;;;;;;27.73;19.42;;;18.40;99.90;;;;;;4994849;28;20026;-88
2021/07/12 02:24:25;;;;;;;32.95;19.92;;;18.30;99.90;;;;;;5017926;28;20030;-87
2021/07/12 02:26:53;;;;;;;27.58;18.20;;;18.40;99.90;;;;;;4995623;28;20022;-88
2021/07/12 02:29:20;;;;;;;25.80;19.48;;;18.30;99.90;;;;;;4995148;28;20030;-88
2021/07/12 02:31:48;;;;;;;27.40;20.42;;;18.50;99.90;;;;;;5009961;28;20394;-89
2021/07/12 02:34:13;;;;;;;30.35;22.40;;;18.50;99.90;;;;;;5003639;28;20026;-87
2021/07/12 02:36:40;;;;;;;29.05;22.10;;;18.40;99.90;;;;;;5014456;28;20386;-87
2021/07/12 02:39:08;;;;;;;34.10;23.42;;;18.30;99.90;;;;;;5014481;28;20426;-89
2021/07/12 02:41:35;;;;;;;29.95;21.45;;;18.30;99.90;;;;;;5013160;28;20391;-90
2021/07/12 02:44:02;;;;;;;31.17;20.95;;;18.30;99.90;;;;;;5024694;28;20034;-88
2021/07/12 02:46:31;;;;;;;30.95;21.95;;;18.30;99.90;;;;;;4993716;28;20101;-91
2021/07/12 02:48:58;;;;;;;32.50;22.15;;;18.40;99.90;;;;;;4993743;28;20535;-92
2021/07/12 02:51:46;;;;;;;31.35;22.48;;;18.40;99.90;;;;;;4994298;28;20077;-89
2021/07/12 02:54:16;;;;;;;30.27;22.33;;;18.30;99.90;;;;;;4997475;28;20108;-89
2021/07/12 02:56:42;;;;;;;28.05;21.90;;;18.30;99.90;;;;;;5013393;28;20022;-90
2021/07/12 02:59:07;;;;;;;22.83;19.13;;;18.30;99.90;;;;;;5014314;28;20022;-90
2021/07/12 03:01:33;;;;;;;31.25;22.67;;;18.20;99.90;;;;;;5012669;28;20032;-89
2021/07/12 03:03:59;;;;;;;29.92;22.48;;;18.20;99.90;;;;;;5013826;28;20034;-89
2021/07/12 03:06:30;;;;;;;36.45;22.27;;;18.20;99.90;;;;;;4995462;28;20038;-90
2021/07/12 03:09:11;;;;;;;27.63;21.38;;;18.10;99.90;;;;;;4994430;28;20501;-90
2021/07/12 03:11:54;;;;;;;32.13;21.83;;;18.00;99.90;;;;;;5009118;28;20030;-90
2021/07/12 03:14:22;;;;;;;32.65;22.17;;;18.00;99.90;;;;;;4994123;28;20023;-89
2021/07/12 03:16:50;;;;;;;34.63;22.00;;;17.90;99.90;;;;;;5012555;28;20033;-89
2021/07/12 03:19:23;;;;;;;29.58;23.17;;;17.90;99.90;;;;;;5012447;28;20026;-88
2021/07/12 03:21:51;;;;;;;31.45;20.95;;;17.90;99.90;;;;;;5028575;28;20376;-89
2021/07/12 03:24:19;;;;;;;29.80;21.40;;;17.80;99.90;;;;;;5013439;28;20053;-90
2021/07/12 03:26:46;;;;;;;44.10;23.08;;;17.80;99.90;;;;;;5011584;28;20038;-90
2021/07/12 03:29:13;;;;;;;32.60;21.77;;;17.70;99.90;;;;;;5013593;28;20018;-89
2021/07/12 03:31:40;;;;;;;36.45;20.67;;;17.70;99.90;;;;;;5013303;28;20092;-89
2021/07/12 03:34:08;;;;;;;32.75;21.42;;;17.70;99.90;;;;;;5013285;28;20041;-90
2021/07/12 03:36:35;;;;;;;28.48;20.92;;;17.70;99.90;;;;;;5002028;28;20018;-90
2021/07/12 03:39:01;;;;;;;29.95;20.77;;;17.60;99.90;;;;;;4993888;28;20054;-89
2021/07/12 03:41:28;;;;;;;33.42;21.15;;;17.50;99.90;;;;;;4993485;28;20054;-89
2021/07/12 03:43:54;;;;;;;30.70;19.27;;;17.50;99.90;;;;;;4993877;28;20050;-86
2021/07/12 03:46:19;;;;;;;37.55;21.38;;;17.50;99.90;;;;;;4998712;28;20068;-90
2021/07/12 03:48:47;;;;;;;31.73;21.45;;;17.50;99.90;;;;;;5013537;28;20057;-90
2021/07/12 03:51:16;;;;;;;30.42;20.20;;;17.40;99.90;;;;;;5011971;28;20030;-90
2021/07/12 03:53:42;;;;;;;28.20;20.90;;;17.50;99.90;;;;;;5012035;28;20113;-90
2021/07/12 03:56:07;;;;;;;29.70;19.52;;;17.50;99.90;;;;;;5012530;28;20097;-91
2021/07/12 03:58:33;;;;;;;30.05;19.90;;;17.40;99.90;;;;;;5013135;28;20456;-90
2021/07/12 04:00:59;;;;;;;27.25;20.80;;;17.50;99.90;;;;;;5028422;28;20033;-92
2021/07/12 04:03:25;;;;;;;29.67;20.80;;;17.50;99.90;;;;;;5027569;28;20050;-88
2021/07/12 04:05:51;;;;;;;32.00;18.60;;;17.50;99.90;;;;;;5028408;28;20068;-90
2021/07/12 04:08:16;;;;;;;25.38;18.52;;;17.50;99.90;;;;;;5013917;28;20384;-90
2021/07/12 04:10:42;;;;;;;30.00;18.60;;;17.50;99.90;;;;;;4992475;28;20031;-92
2021/07/12 04:13:08;;;;;;;26.88;18.10;;;17.50;99.90;;;;;;5008403;28;20042;-91
2021/07/12 04:15:34;;;;;;;31.20;19.00;;;17.60;99.90;;;;;;4993291;28;20597;-90
2021/07/12 04:18:00;;;;;;;24.02;18.40;;;17.60;99.90;;;;;;5004564;28;20040;-89
2021/07/12 04:20:25;;;;;;;23.88;17.77;;;17.60;99.90;;;;;;5013007;28;20080;-92
2021/07/12 04:22:51;;;;;;;26.95;18.35;;;17.60;99.90;;;;;;5012620;28;20469;-91
2021/07/12 04:25:16;;;;;;;26.23;17.10;;;17.60;99.90;;;;;;5013021;28;20065;-90
2021/07/12 04:27:42;;;;;;;26.75;19.52;;;17.70;99.90;;;;;;5006941;28;20035;-91
2021/07/12 04:30:09;;;;;;;24.77;16.70;;;17.80;99.90;;;;;;4993148;28;20033;-91
2021/07/12 04:32:35;;;;;;;26.20;16.65;;;17.70;99.90;;;;;;4993019;28;20030;-91
2021/07/12 04:35:01;;;;;;;20.08;15.98;;;17.70;99.90;;;;;;4992867;28;20098;-89
2021/07/12 04:37:26;;;;;;;22.27;15.70;;;17.80;99.90;;;;;;4993974;28;20050;-90
2021/07/12 04:39:52;;;;;;;24.75;15.73;;;17.80;99.90;;;;;;5012563;28;20483;-90
2021/07/12 04:42:18;;;;;;;22.90;16.52;;;17.90;99.90;;;;;;5027601;28;20026;-89
2021/07/12 04:44:43;;;;;;;22.30;15.65;;;17.90;99.90;;;;;;5012406;28;20033;-89
2021/07/12 04:47:09;;;;;;;21.17;17.33;;;18.00;99.90;;;;;;5027631;28;20025;-88
2021/07/12 04:49:34;;;;;;;23.42;17.77;;;18.00;99.90;;;;;;4996298;28;20034;-88
2021/07/12 04:52:01;;;;;;;26.55;16.73;;;18.10;99.90;;;;;;4992579;28;20030;-89
2021/07/12 04:54:26;;;;;;;24.02;15.40;;;18.20;99.90;;;;;;4991304;28;20492;-87
2021/07/12 04:56:52;;;;;;;22.52;15.73;;;18.20;99.90;;;;;;5006880;28;20054;-89
2021/07/12 04:59:24;;;;;;;21.77;15.13;;;18.30;99.90;;;;;;5012021;28;20060;-88
2021/07/12 05:01:49;;;;;;;24.83;15.80;;;18.40;99.90;;;;;;5012287;28;20022;-91
2021/07/12 05:04:15;;;;;;;23.73;15.27;;;18.40;99.90;;;;;;5010939;28;20027;-90
2021/07/12 05:06:40;;;;;;;21.63;15.55;;;18.40;99.90;;;;;;4992871;28;20109;-90
2021/07/12 05:09:06;;;;;;;25.92;15.57;;;18.60;99.90;;;;;;4992809;28;20034;-91
2021/07/12 05:11:33;;;;;;;26.50;16.60;;;18.80;99.90;;;;;;5007279;28;20027;-88
2021/07/12 05:13:59;;;;;;;20.15;13.43;;;18.60;99.90;;;;;;5002790;28;20042;-89
2021/07/12 05:16:24;;;;;;;21.08;14.05;;;18.80;99.90;;;;;;5015101;28;20032;-90
2021/07/12 05:18:51;;;;;;;25.90;15.00;;;18.80;99.90;;;;;;5015876;28;20441;-89
2021/07/12 05:21:17;;;;;;;19.00;13.43;;;19.00;99.90;;;;;;5030969;28;20120;-90
2021/07/12 05:23:42;;;;;;;24.25;13.63;;;19.10;99.90;;;;;;5013885;28;20064;-89
2021/07/12 05:26:08;;;;;;;17.60;12.82;;;19.00;99.90;;;;;;5012945;28;20029;-88
2021/07/12 05:28:36;;;;;;;19.35;12.18;;;19.20;99.90;;;;;;5015851;28;20104;-88
2021/07/12 05:31:01;;;;;;;18.65;12.98;;;19.40;99.90;;;;;;5015557;28;20022;-88
2021/07/12 05:33:27;;;;;;;17.92;11.57;;;19.60;99.90;;;;;;5015247;28;20405;-87
2021/07/12 05:35:53;;;;;;;20.20;11.80;;;19.50;99.90;;;;;;5008463;28;20133;-87
2021/07/12 05:38:18;;;;;;;17.45;10.80;;;19.70;99.90;;;;;;4995792;28;20035;-87
2021/07/12 05:40:44;;;;;;;21.10;12.55;;;19.80;99.90;;;;;;4995701;28;20026;-88
2021/07/12 05:43:09;;;;;;;18.42;11.80;;;19.80;99.90;;;;;;4995484;28;20097;-85
2021/07/12 05:45:35;;;;;;;21.20;11.30;;;19.90;99.90;;;;;;4996544;28;20026;-88
2021/07/12 05:48:01;;;;;;;16.75;10.02;;;20.10;99.90;;;;;;5015248;28;20030;-88
2021/07/12 05:50:27;;;;;;;19.58;10.63;;;20.10;99.90;;;;;;5015230;28;20117;-87
2021/07/12 05:52:53;;;;;;;12.15;9.38;;;20.20;99.90;;;;;;5014879;28;20026;-87
2021/07/12 05:55:19;;;;;;;15.35;10.18;;;20.40;99.90;;;;;;5014891;28;20034;-88
2021/07/12 05:57:44;;;;;;;11.80;9.10;;;20.40;99.90;;;;;;4998682;28;20041;-87
2021/07/12 06:00:11;;;;;;;20.67;9.00;;;20.60;99.90;;;;;;4994211;28;20022;-87
2021/07/12 06:02:37;;;;;;;13.52;8.82;;;20.70;99.90;;;;;;5010546;28;20037;-88
2021/07/12 06:05:04;;;;;;;10.70;8.10;;;20.80;99.90;;;;;;5013435;28;20018;-88
2021/07/12 06:07:30;;;;;;;12.73;9.23;;;20.90;99.90;;;;;;5003448;28;20034;-86
2021/07/12 06:09:55;;;;;;;12.43;7.95;;;21.00;99.90;;;;;;5010046;28;20077;-88
2021/07/12 06:12:21;;;;;;;11.23;7.68;;;21.30;99.90;;;;;;4994775;28;20080;-88
2021/07/12 06:14:46;;;;;;;15.88;8.43;;;21.30;99.90;;;;;;4994853;28;20030;-89
2021/07/12 06:17:12;;;;;;;13.35;7.07;;;21.30;99.90;;;;;;5000576;28;20044;-89
2021/07/12 06:19:37;;;;;;;9.38;7.47;;;21.50;99.90;;;;;;5008678;28;20529;-88
2021/07/12 06:22:04;;;;;;;10.40;6.68;;;21.50;99.90;;;;;;5011600;28;20072;-89
2021/07/12 06:24:30;;;;;;;10.75;7.65;;;21.60;99.90;;;;;;5014287;28;20038;-87
2021/07/12 06:26:57;;;;;;;13.50;6.78;;;21.70;99.90;;;;;;5013414;28;20136;-88
2021/07/12 06:29:22;;;;;;;12.50;6.13;;;21.80;99.90;;;;;;5014425;28;20097;-89
2021/07/12 06:31:49;;;;;;;9.55;6.88;;;22.00;99.90;;;;;;5000935;28;20121;-89
2021/07/12 06:34:15;;;;;;;15.63;6.93;;;22.10;99.90;;;;;;5009452;28;20026;-89
2021/07/12 06:36:40;;;;;;;8.80;6.47;;;22.20;99.90;;;;;;5009689;28;20023;-89
2021/07/12 06:39:06;;;;;;;10.95;7.50;;;22.30;99.90;;;;;;4993372;28;20029;-88
2021/07/12 06:41:32;;;;;;;11.02;7.13;;;22.30;99.90;;;;;;5009812;28;20057;-87
2021/07/12 06:43:58;;;;;;;12.85;7.10;;;22.40;99.90;;;;;;5005148;28;20176;-89
2021/07/12 06:46:23;;;;;;;11.50;6.47;;;22.50;99.90;;;;;;4998523;28;20113;-88
2021/07/12 06:48:49;;;;;;;11.82;6.63;;;22.60;99.90;;;;;;4992986;28;20120;-88
2021/07/12 06:51:15;;;;;;;11.52;6.78;;;22.80;99.90;;;;;;4995228;28;20483;-89
2021/07/12 06:53:40;;;;;;;15.63;6.85;;;22.80;99.90;;;;;;5007697;28;20069;-86
2021/07/12 06:56:06;;;;;;;10.23;6.47;;;22.90;99.90;;;;;;5028662;28;20057;-85
2021/07/12 06:58:33;;;;;;;9.05;5.85;;;23.10;99.90;;;;;;5013701;28;20018;-85
2021/07/12 07:00:59;;;;;;;9.98;5.90;;;23.30;99.90;;;;;;5015737;28;20087;-86
2021/07/12 07:03:24;;;;;;;14.15;6.50;;;23.40;99.90;;;;;;4996920;28;20449;-86
2021/07/12 07:05:50;;;;;;;10.50;6.00;;;23.60;99.90;;;;;;4993856;28;20113;-86
2021/07/12 07:08:16;;;;;;;10.75;5.80;;;23.60;99.90;;;;;;4998431;28;20030;-82
2021/07/12 07:10:42;;;;;;;9.63;5.13;;;23.90;99.90;;;;;;5013429;28;20156;-82
2021/07/12 07:13:07;;;;;;;11.98;5.38;;;24.10;99.90;;;;;;5013429;28;20037;-82
2021/07/12 07:15:33;;;;;;;7.78;5.60;;;24.30;99.90;;;;;;5013316;28;20098;-82
2021/07/12 07:17:59;;;;;;;11.02;5.18;;;24.40;99.90;;;;;;5021445;28;20041;-81
2021/07/12 07:20:25;;;;;;;12.77;5.30;;;24.40;99.90;;;;;;5012924;28;20371;-82
2021/07/12 07:22:51;;;;;;;9.65;4.78;;;24.60;99.90;;;;;;5028005;28;20041;-82
2021/07/12 07:25:16;;;;;;;9.43;4.85;;;24.60;99.90;;;;;;5011731;28;20025;-83
2021/07/12 07:27:42;;;;;;;18.02;5.70;;;24.70;99.90;;;;;;5003297;28;20072;-82
2021/07/12 07:30:09;;;;;;;16.38;4.97;;;24.80;99.90;;;;;;5009206;28;20026;-82
2021/07/12 07:32:34;;;;;;;7.07;4.60;;;24.80;99.90;;;;;;5017138;28;20493;-82
2021/07/12 07:35:00;;;;;;;9.75;4.00;;;24.90;99.90;;;;;;5026102;28;20033;-82
2021/07/12 07:37:26;;;;;;;16.83;4.43;;;24.90;99.90;;;;;;5020205;28;20068;-81
2021/07/12 07:39:51;;;;;;;8.23;4.70;;;25.20;99.90;;;;;;5018824;28;20037;-83
2021/07/12 07:42:17;;;;;;;10.88;5.03;;;25.20;99.90;;;;;;5024671;28;20025;-82
2021/07/12 07:44:42;;;;;;;8.48;5.03;;;25.60;99.90;;;;;;5025145;28;20120;-81
2021/07/12 07:47:10;;;;;;;9.07;4.60;;;25.70;99.90;;;;;;5017558;28;20038;-82
2021/07/12 07:49:35;;;;;;;10.90;4.85;;;25.90;99.90;;;;;;5017498;28;20048;-82
2021/07/12 07:52:01;;;;;;;8.50;4.57;;;26.00;99.90;;;;;;5017137;28;20033;-82
2021/07/12 07:54:27;;;;;;;7.47;4.72;;;26.10;99.90;;;;;;5028869;28;20091;-82
2021/07/12 07:56:52;;;;;;;7.10;4.85;;;26.20;99.90;;;;;;5027395;28;20058;-81
2021/07/12 07:59:18;;;;;;;7.93;4.47;;;26.30;99.90;;;;;;5012676;28;20044;-80
2021/07/12 08:01:44;;;;;;;6.05;4.45;;;26.20;99.90;;;;;;5000266;28;20022;-81
2021/07/12 08:04:09;;;;;;;12.55;4.43;;;26.60;99.90;;;;;;5017883;28;20033;-80
2021/07/12 08:06:35;;;;;;;19.17;4.78;;;26.80;99.90;;;;;;5016304;28;20175;-81
2021/07/12 08:09:01;;;;;;;11.77;4.57;;;26.80;99.90;;;;;;5026686;28;20033;-81
2021/07/12 08:11:27;;;;;;;7.95;4.22;;;27.00;99.90;;;;;;5017452;28;20028;-80
2021/07/12 08:13:53;;;;;;;7.93;4.43;;;27.20;99.90;;;;;;5017441;28;20029;-81
2021/07/12 08:16:18;;;;;;;11.57;4.55;;;27.40;99.90;;;;;;5017119;28;20064;-81
2021/07/12 08:18:44;;;;;;;9.82;4.15;;;27.50;99.90;;;;;;5019754;28;20061;-81
2021/07/12 08:21:13;;;;;;;5.68;3.97;;;27.90;99.90;;;;;;5015412;28;20518;-81
2021/07/12 08:23:44;;;;;;;21.73;3.95;;;28.00;99.90;;;;;;5023817;28;20037;-81
2021/07/12 08:26:11;;;;;;;9.63;4.45;;;28.20;99.90;;;;;;5021694;28;20060;-81
2021/07/12 08:28:38;;;;;;;11.68;4.68;;;28.30;99.90;;;;;;5025552;28;20098;-81
2021/07/12 08:31:03;;;;;;;19.73;4.60;;;28.40;99.90;;;;;;5011991;28;20030;-80
2021/07/12 08:33:29;;;;;;;7.70;3.78;;;28.40;99.90;;;;;;5017390;28;20034;-81
2021/07/12 08:35:55;;;;;;;8.88;4.63;;;28.40;99.90;;;;;;5021985;28;20367;-81
2021/07/12 08:38:21;;;;;;;6.93;4.05;;;28.40;99.90;;;;;;5012384;28;20033;-80
2021/07/12 08:40:47;;;;;;;9.88;3.88;;;28.30;99.90;;;;;;5011905;28;20025;-80
2021/07/12 08:43:14;;;;;;;7.05;3.78;;;27.90;99.90;;;;;;5011902;28;20104;-80
2021/07/12 08:45:40;;;;;;;5.90;3.28;;;27.80;99.90;;;;;;5012019;28;20045;-80
2021/07/12 08:48:06;;;;;;;6.38;3.70;;;27.60;99.90;;;;;;5027077;28;20026;-79
2021/07/12 08:50:31;;;;;;;5.93;3.60;;;27.40;99.90;;;;;;5010023;28;20030;-80
2021/07/12 08:52:57;;;;;;;10.38;4.15;;;27.40;99.90;;;;;;5010412;28;20128;-80
2021/07/12 08:55:24;;;;;;;11.50;4.63;;;27.40;99.90;;;;;;5011707;28;20033;-80
2021/07/12 08:58:07;;;;;;;9.43;3.97;;;27.50;99.90;;;;;;5000416;28;20458;-80
2021/07/12 09:00:40;;;;;;;12.15;4.15;;;27.70;99.90;;;;;;5007527;28;20042;-80
2021/07/12 09:03:22;;;;;;;19.27;4.60;;;27.90;99.90;;;;;;4991847;28;20022;-80
2021/07/12 09:06:11;;;;;;;8.02;3.72;;;28.30;99.90;;;;;;4991015;28;20033;-80
2021/07/12 09:08:41;;;;;;;7.63;3.80;;;28.00;99.90;;;;;;4992390;28;20042;-80
2021/07/12 09:11:16;;;;;;;10.23;4.00;;;27.90;99.90;;;;;;4992139;28;20022;-81
2021/07/12 09:13:42;;;;;;;11.65;3.67;;;28.20;99.90;;;;;;4992244;28;20557;-80
2021/07/12 09:16:46;;;;;;;13.00;3.78;;;28.40;99.90;;;;;;4992061;28;20390;-80
2021/07/12 09:19:16;;;;;;;7.53;3.30;;;28.80;99.90;;;;;;5007246;28;20394;-80
2021/07/12 09:21:43;;;;;;;9.98;3.42;;;29.00;99.90;;;;;;4991835;28;20066;-80
2021/07/12 09:24:16;;;;;;;10.23;3.38;;;29.10;99.90;;;;;;4992064;28;20573;-80
2021/07/12 09:26:47;;;;;;;12.05;3.70;;;29.20;99.90;;;;;;5007172;28;20038;-80
2021/07/12 09:29:15;;;;;;;10.73;3.70;;;29.10;99.90;;;;;;4990874;28;20502;-80
2021/07/12 09:31:41;;;;;;;7.63;3.88;;;28.90;99.90;;;;;;4991896;28;20558;-80
2021/07/12 09:34:07;;;;;;;5.97;3.80;;;28.60;99.90;;;;;;4991761;28;20068;-80
2021/07/12 09:36:33;;;;;;;10.20;3.70;;;28.50;99.90;;;;;;4991749;28;20054;-79
2021/07/12 09:39:20;;;;;;;8.70;3.30;;;28.50;99.90;;;;;;4991974;28;20037;-80
2021/07/12 09:41:48;;;;;;;9.00;3.63;;;28.70;99.90;;;;;;4990572;28;20427;-80
2021/07/12 09:44:13;;;;;;;11.43;3.55;;;29.10;99.90;;;;;;4991800;28;20022;-79
2021/07/12 09:46:39;;;;;;;17.35;3.42;;;29.40;99.90;;;;;;4991875;28;20181;-79
2021/07/12 09:49:15;;;;;;;8.40;3.47;;;29.50;99.90;;;;;;5006924;28;20027;-80
2021/07/12 09:51:42;;;;;;;13.18;4.07;;;29.40;99.90;;;;;;4991586;28;20080;-80
2021/07/12 09:54:18;;;;;;;6.95;3.53;;;29.40;99.90;;;;;;5006802;28;20033;-81
2021/07/12 09:56:44;;;;;;;6.97;3.95;;;29.60;99.90;;;;;;5006805;28;20060;-80
2021/07/12 09:59:16;;;;;;;15.63;3.75;;;29.60;99.90;;;;;;4991730;28;20424;-81
2021/07/12 10:01:49;;;;;;;10.77;2.78;;;29.60;99.90;;;;;;4994170;28;20061;-81
2021/07/12 10:04:15;;;;;;;;;;;29.90;99.90;;;;;;5015431;28;20096;-80
2021/07/12 10:06:43;;;;;;;16.05;3.22;;;30.10;99.90;;;;;;5014818;28;19952;-80
2021/07/12 10:09:08;;;;;;;9.02;3.80;;;30.50;99.90;;;;;;5014798;28;20156;-81
2021/07/12 10:11:35;;;;;;;14.70;3.75;;;30.70;99.90;;;;;;5014418;28;20100;-81
2021/07/12 10:14:02;;;;;;;11.60;3.78;;;30.60;99.90;;;;;;5014368;28;20030;-80
2021/07/12 10:16:29;;;;;;;3.58;2.83;;;30.60;99.90;;;;;;5014693;28;20017;-81
2021/07/12 10:18:54;;;;;;;14.48;3.42;;;30.60;99.90;;;;;;5013239;28;20616;-80
2021/07/12 10:21:20;;;;;;;10.05;3.65;;;30.70;99.90;;;;;;5014198;28;20113;-81
2021/07/12 10:23:46;;;;;;;9.05;3.40;;;30.70;99.90;;;;;;5013225;28;20486;-81
2021/07/12 10:26:12;;;;;;;7.45;4.03;;;30.60;99.90;;;;;;5014351;28;20034;-80
2021/07/12 10:28:40;;;;;;;10.13;3.58;;;30.60;99.90;;;;;;5012998;28;20037;-80
2021/07/12 10:31:22;;;;;;;9.60;3.55;;;30.60;99.90;;;;;;5014366;28;20490;-80
2021/07/12 10:33:47;;;;;;;7.80;3.22;;;30.60;99.90;;;;;;5014241;28;20560;-80
2021/07/12 10:36:37;;;;;;;6.95;3.25;;;30.70;99.90;;;;;;5012928;28;20030;-81
2021/07/12 10:39:03;;;;;;;7.95;3.20;;;30.80;99.90;;;;;;5014032;28;20030;-81
2021/07/12 10:41:29;;;;;;;6.00;3.42;;;31.10;99.90;;;;;;5013889;28;20113;-81
2021/07/12 10:43:57;;;;;;;7.50;3.13;;;31.30;99.90;;;;;;5014037;28;20526;-81
2021/07/12 10:46:30;;;;;;;7.47;2.90;;;31.60;99.90;;;;;;5012806;28;20394;-81
2021/07/12 10:49:35;;;;;;;9.38;3.25;;;31.90;99.90;;;;;;5013902;28;20049;-80
2021/07/12 10:52:02;;;;;;;6.60;3.53;;;32.10;99.90;;;;;;5013750;28;20030;-81
2021/07/12 10:54:28;;;;;;;8.88;3.35;;;31.90;99.90;;;;;;5013780;28;20536;-80
2021/07/12 10:56:57;;;;;;;12.13;3.05;;;31.90;99.90;;;;;;5009877;28;20030;-80
2021/07/12 10:59:33;;;;;;;13.15;3.03;;;31.90;99.90;;;;;;4994296;28;20023;-81
2021/07/12 11:02:14;;;;;;;6.35;3.00;;;32.10;99.90;;;;;;4993981;28;20027;-81
2021/07/12 11:04:42;;;;;;;6.65;2.95;;;32.30;99.90;;;;;;4994084;28;20080;-80
2021/07/12 11:07:16;;;;;;;9.63;2.88;;;32.50;99.90;;;;;;5009060;28;20035;-81
2021/07/12 11:10:03;;;;;;;20.10;3.13;;;32.50;99.90;;;;;;4994141;28;20479;-81
2021/07/12 11:12:33;;;;;;;6.57;3.42;;;32.40;99.90;;;;;;4993642;28;20379;-81
2021/07/12 11:15:08;;;;;;;7.50;2.80;;;32.70;99.90;;;;;;4993755;28;20030;-81
2021/07/12 11:18:01;;;;;;;5.32;2.72;;;32.40;99.90;;;;;;4993805;28;20033;-81
2021/07/12 11:20:51;;;;;;;4.88;3.35;;;32.20;99.90;;;;;;4993816;28;20478;-82
2021/07/12 11:23:35;;;;;;;8.00;3.15;;;32.10;99.90;;;;;;4993707;28;20149;-80
2021/07/12 11:26:01;;;;;;;8.32;3.30;;;32.10;99.90;;;;;;4993617;28;20030;-80
2021/07/12 11:28:43;;;;;;;5.80;3.03;;;31.80;99.90;;;;;;5008699;28;20062;-80
2021/07/12 11:31:39;;;;;;;9.13;2.97;;;31.30;99.90;;;;;;4993693;28;20031;-81
2021/07/12 11:34:14;;;;;;;3.70;2.58;;;31.00;99.90;;;;;;4993385;28;20034;-80
2021/07/12 11:36:50;;;;;;;9.90;2.95;;;30.70;99.90;;;;;;4992406;28;20030;-81
2021/07/12 11:39:18;;;;;;;3.95;2.50;;;30.10;99.90;;;;;;4993230;28;20084;-81
2021/07/12 11:41:44;;;;;;;14.23;2.53;;;29.80;99.90;;;;;;4992041;28;20022;-81
2021/07/12 11:44:11;;;;;;;11.88;3.20;;;29.30;99.90;;;;;;4993326;28;20447;-81
2021/07/12 11:46:37;;;;;;;5.22;2.72;;;29.00;99.90;;;;;;4993440;28;20654;-81
2021/07/12 11:49:11;;;;;;;4.82;3.05;;;28.90;99.90;;;;;;4993229;28;20030;-81
2021/07/12 11:51:38;;;;;;;11.20;3.28;;;28.80;99.90;;;;;;4993321;28;20015;-80
2021/07/12 11:54:17;;;;;;;20.27;3.22;;;28.60;99.90;;;;;;4993015;28;20022;-80
2021/07/12 11:57:10;;;;;;;13.02;3.55;;;28.50;99.90;;;;;;4991915;28;20069;-81
2021/07/12 11:59:38;;;;;;;11.30;3.70;;;28.40;99.90;;;;;;4993111;28;20459;-80
2021/07/12 12:02:08;;;;;;;8.98;3.45;;;28.70;99.90;;;;;;4992750;28;20037;-80
2021/07/12 12:04:45;;;;;;;7.20;3.33;;;29.70;99.90;;;;;;4993003;28;20037;-82
2021/07/12 12:07:28;;;;;;;6.47;3.58;;;30.60;99.90;;;;;;5008126;28;20037;-80
2021/07/12 12:09:58;;;;;;;8.75;3.20;;;30.60;99.90;;;;;;5008070;28;20037;-81
2021/07/12 12:12:30;;;;;;;5.78;3.25;;;30.40;99.90;;;;;;4992690;28;20030;-81
2021/07/12 12:15:02;;;;;;;7.80;3.58;;;30.00;99.90;;;;;;5007785;28;20137;-81
2021/07/12 12:17:28;;;;;;;9.30;3.00;;;29.20;99.90;;;;;;4993013;28;20483;-80
2021/07/12 12:20:18;;;;;;;6.20;2.95;;;28.50;99.90;;;;;;4992879;28;20034;-80
2021/07/12 12:23:06;;;;;;;5.90;3.30;;;28.20;99.90;;;;;;4992517;28;20030;-80
2021/07/12 12:26:00;;;;;;;10.27;2.97;;;28.00;99.90;;;;;;4991954;28;20483;-79
2021/07/12 12:28:33;;;;;;;9.80;2.40;;;27.70;99.90;;;;;;4992826;28;20450;-81
2021/07/12 12:31:07;;;;;;;3.88;2.60;;;27.40;99.90;;;;;;5007887;28;20036;-81
2021/07/12 12:33:42;;;;;;;4.00;2.58;;;27.50;99.90;;;;;;4992378;28;20027;-80
2021/07/12 12:36:19;;;;;;;3.42;2.63;;;27.80;99.90;;;;;;4992629;28;20415;-80
2021/07/12 12:38:59;;;;;;;12.95;3.10;;;28.20;99.90;;;;;;5007749;28;20021;-80
2021/07/12 12:41:50;;;;;;;20.75;3.05;;;28.60;99.90;;;;;;5007551;28;20085;-80
2021/07/12 12:44:25;;;;;;;7.70;2.65;;;28.90;99.90;;;;;;4987022;28;20038;-81
2021/07/12 12:46:53;;;;;;;10.35;3.28;;;29.00;99.90;;;;;;5007508;28;20030;-81